createdAt,value
2023-02-16T00:02:18.718Z,98617.84
2023-02-16T00:05:22.718Z,98625.69
2023-02-16T00:08:27.023Z,98637.97
2023-02-16T00:11:31.098Z,98641.25
2023-02-16T00:14:35.058Z,98641.41
2023-02-16T00:17:39.009Z,98633.13
2023-02-16T00:20:43.115Z,98632.25
2023-02-16T00:23:47.167Z,98628.50
2023-02-16T00:26:51.087Z,98629.53
2023-02-16T00:29:55.105Z,98635.22
2023-02-16T00:32:58.945Z,98636.97
2023-02-16T00:36:03.008Z,98633.91
2023-02-16T00:39:07.116Z,98630.97
2023-02-16T00:42:10.921Z,98626.56
2023-02-16T00:45:14.886Z,98627.88
2023-02-16T00:48:19.053Z,98635.53
2023-02-16T00:51:26.021Z,98624.31
2023-02-16T00:54:31.909Z,98631.09
2023-02-16T00:57:35.961Z,98626.06
2023-02-16T01:00:39.987Z,98630.13
2023-02-16T01:03:43.798Z,98630.66
2023-02-16T01:06:48.006Z,98632.31
2023-02-16T01:09:51.922Z,98633.50
2023-02-16T01:12:55.966Z,98631.09
2023-02-16T01:15:59.897Z,98627.00
2023-02-16T01:19:03.842Z,98628.44
2023-02-16T01:22:08.158Z,98628.28
2023-02-16T01:25:12.044Z,98638.47
2023-02-16T01:28:15.775Z,98643.53
2023-02-16T01:31:20.088Z,98651.91
2023-02-16T01:34:24.307Z,98642.38
2023-02-16T01:37:28.326Z,98637.34
2023-02-16T01:40:32.354Z,98632.78
2023-02-16T01:43:36.315Z,98633.91
2023-02-16T01:46:40.338Z,98630.16
2023-02-16T01:49:44.229Z,98624.94
2023-02-16T01:52:48.280Z,98622.81
2023-02-16T01:55:52.140Z,98616.63
2023-02-16T01:58:56.185Z,98615.47
2023-02-16T02:02:00.164Z,98610.41
2023-02-16T02:05:04.254Z,98605.19
2023-02-16T02:08:08.302Z,98601.13
2023-02-16T02:11:12.674Z,98608.00
2023-02-16T02:14:16.594Z,98619.22
2023-02-16T02:17:20.792Z,98618.81
2023-02-16T02:20:24.693Z,98611.59
2023-02-16T02:23:28.787Z,98605.09
2023-02-16T02:26:32.434Z,98605.06
2023-02-16T02:29:36.605Z,98608.63
2023-02-16T02:32:40.657Z,98606.47
2023-02-16T02:35:44.743Z,98616.59
2023-02-16T02:38:48.586Z,98617.41
2023-02-16T02:41:52.661Z,98605.41
2023-02-16T02:44:56.731Z,98600.84
2023-02-16T02:48:00.744Z,98605.69
2023-02-16T02:51:04.873Z,98609.31
2023-02-16T02:54:08.685Z,98601.81
2023-02-16T02:57:12.601Z,98598.50
2023-02-16T03:00:16.656Z,98595.63
2023-02-16T03:03:20.678Z,98594.81
2023-02-16T03:06:24.508Z,98594.00
2023-02-16T03:09:28.341Z,98582.91
2023-02-16T03:12:32.284Z,98574.75
2023-02-16T03:15:36.336Z,98581.25
2023-02-16T03:18:40.012Z,98577.97
2023-02-16T03:21:44.057Z,98581.88
2023-02-16T03:24:48.081Z,98591.59
2023-02-16T03:27:52.052Z,98592.91
2023-02-16T03:30:55.956Z,98594.16
2023-02-16T03:33:59.810Z,98589.25
2023-02-16T03:37:03.748Z,98593.25
2023-02-16T03:40:07.902Z,98595.19
2023-02-16T03:43:11.992Z,98590.78
2023-02-16T03:46:15.815Z,98599.91
2023-02-16T03:49:19.685Z,98590.69
2023-02-16T03:52:23.819Z,98599.63
2023-02-16T03:55:27.772Z,98605.19
2023-02-16T03:58:31.771Z,98609.47
2023-02-16T04:01:35.588Z,98607.59
2023-02-16T04:04:39.735Z,98611.88
2023-02-16T04:07:43.740Z,98612.22
2023-02-16T04:10:47.882Z,98610.63
2023-02-16T04:13:51.819Z,98603.78
2023-02-16T04:16:55.791Z,98604.91
2023-02-16T04:19:59.869Z,98604.25
2023-02-16T04:23:03.999Z,98608.50
2023-02-16T04:26:07.880Z,98619.72
2023-02-16T04:29:11.740Z,98620.78
2023-02-16T04:32:15.921Z,98626.09
2023-02-16T04:35:19.962Z,98624.44
2023-02-16T04:38:24.137Z,98625.47
2023-02-16T04:41:28.111Z,98619.81
2023-02-16T04:44:32.106Z,98634.59
2023-02-16T04:47:35.897Z,98629.97
2023-02-16T04:50:40.064Z,98636.41
2023-02-16T04:53:43.937Z,98629.72
2023-02-16T04:56:47.904Z,98631.31
2023-02-16T04:59:51.877Z,98635.97
2023-02-16T05:02:56.034Z,98630.00
2023-02-16T05:06:00.005Z,98643.03
2023-02-16T05:09:03.743Z,98640.66
2023-02-16T05:12:07.955Z,98633.78
2023-02-16T05:15:11.759Z,98639.09
2023-02-16T05:18:15.890Z,98639.00
2023-02-16T05:21:19.792Z,98631.94
2023-02-16T05:24:23.548Z,98634.00
2023-02-16T05:27:27.676Z,98635.38
2023-02-16T05:30:31.810Z,98632.38
2023-02-16T05:33:38.724Z,98631.78
2023-02-16T05:36:42.799Z,98627.09
2023-02-16T05:39:46.567Z,98640.22
2023-02-16T05:42:50.546Z,98643.47
2023-02-16T05:45:54.609Z,98651.13
2023-02-16T05:48:58.493Z,98647.91
2023-02-16T05:52:02.519Z,98651.91
2023-02-16T05:55:06.392Z,98651.97
2023-02-16T05:58:10.282Z,98659.84
2023-02-16T06:01:14.356Z,98654.97
2023-02-16T06:04:18.210Z,98659.84
2023-02-16T06:07:22.073Z,98656.28
2023-02-16T06:10:26.037Z,98656.00
2023-02-16T06:13:30.187Z,98651.75
2023-02-16T06:16:34.141Z,98652.44
